createdAt,value
2023-03-01T00:00:25.376Z,31.00
2023-03-01T00:05:28.657Z,31.10
2023-03-01T00:10:31.726Z,31.00
2023-03-01T00:15:39.700Z,31.10
2023-03-01T00:20:42.785Z,31.20
2023-03-01T00:25:46.217Z,31.20
2023-03-01T00:30:50.819Z,31.40
2023-03-01T00:35:53.991Z,31.40
2023-03-01T00:40:57.172Z,31.30
2023-03-01T00:46:05.533Z,31.30
2023-03-01T00:51:10.345Z,31.50
2023-03-01T00:56:15.036Z,31.20
2023-03-01T01:01:22.695Z,31.20
2023-03-01T01:06:28.055Z,31.40
2023-03-01T01:11:32.119Z,31.30
2023-03-01T01:16:36.604Z,31.40
2023-03-01T01:21:39.794Z,31.30
2023-03-01T01:26:43.222Z,31.50
2023-03-01T01:31:47.747Z,31.40
2023-03-01T01:36:51.840Z,31.70
2023-03-01T01:41:54.921Z,31.70
2023-03-01T01:47:02.770Z,31.60
2023-03-01T01:52:11.764Z,31.90
2023-03-01T01:57:20.132Z,31.90
2023-03-01T02:02:25.008Z,31.90
2023-03-01T02:07:28.674Z,32.00
2023-03-01T02:12:32.511Z,32.00
2023-03-01T02:17:37.635Z,32.00
2023-03-01T02:22:41.590Z,32.10
2023-03-01T02:27:54.088Z,32.10
2023-03-01T02:33:03.650Z,32.30
2023-03-01T02:38:10.786Z,32.20
2023-03-01T02:43:15.227Z,32.20
2023-03-01T02:48:19.918Z,32.00
2023-03-01T02:53:30.127Z,31.90
2023-03-01T02:58:33.280Z,32.00
2023-03-01T03:03:37.749Z,31.80
2023-03-01T03:08:41.061Z,31.90
2023-03-01T03:13:49.093Z,31.80
2023-03-01T03:18:53.696Z,31.70
2023-03-01T03:23:59.227Z,31.90
2023-03-01T03:29:02.654Z,31.80
2023-03-01T03:34:07.193Z,31.90
2023-03-01T03:39:11.898Z,31.90
2023-03-01T03:44:14.966Z,31.90
2023-03-01T03:49:19.481Z,32.00
2023-03-01T03:54:22.553Z,32.00
2023-03-01T03:59:25.628Z,31.90
2023-03-01T04:04:30.075Z,31.80
2023-03-01T04:09:33.163Z,31.90
2023-03-01T04:14:36.488Z,31.80
2023-03-01T04:19:40.986Z,31.80
2023-03-01T04:24:44.360Z,31.90
2023-03-01T04:29:47.420Z,31.80
2023-03-01T04:34:51.878Z,31.80
2023-03-01T04:39:54.989Z,31.80
2023-03-01T04:44:58.082Z,31.80
2023-03-01T04:50:02.567Z,31.90
2023-03-01T04:55:06.410Z,31.90
2023-03-01T05:00:22.275Z,31.90
2023-03-01T05:05:33.536Z,31.90
2023-03-01T05:10:39.756Z,32.20
2023-03-01T05:15:42.865Z,31.90
2023-03-01T05:20:48.347Z,32.00
2023-03-01T05:25:53.388Z,32.10
2023-03-01T05:30:56.788Z,32.10
2023-03-01T05:36:02.567Z,32.00
2023-03-01T05:41:05.935Z,32.10
2023-03-01T05:46:13.370Z,31.90
2023-03-01T05:51:18.600Z,32.00
2023-03-01T05:56:23.309Z,32.00
2023-03-01T06:01:26.416Z,31.90
2023-03-01T06:06:31.931Z,31.90
2023-03-01T06:11:36.407Z,32.20
2023-03-01T06:16:39.507Z,32.00
2023-03-01T06:21:44.071Z,32.10
2023-03-01T06:26:47.154Z,34.50
2023-03-01T06:31:50.347Z,34.30
2023-03-01T06:36:54.851Z,33.30
2023-03-01T06:41:57.969Z,33.00
2023-03-01T06:47:01.159Z,32.70
2023-03-01T06:52:05.967Z,32.50
2023-03-01T06:57:09.036Z,32.60
2023-03-01T07:02:13.333Z,32.60
2023-03-01T07:07:19.036Z,32.60
2023-03-01T07:12:22.134Z,32.70
2023-03-01T07:17:25.236Z,32.70
2023-03-01T07:22:29.735Z,32.80
2023-03-01T07:27:32.833Z,32.90
2023-03-01T07:32:36.072Z,32.90
2023-03-01T07:37:40.676Z,33.00
2023-03-01T07:42:43.845Z,33.10
2023-03-01T07:47:46.956Z,33.10
2023-03-01T07:52:52.412Z,33.20
2023-03-01T07:57:55.475Z,33.60
2023-03-01T08:03:01.469Z,33.60
2023-03-01T08:08:07.164Z,33.70
2023-03-01T08:13:10.343Z,33.90
2023-03-01T08:18:13.400Z,33.80
2023-03-01T08:23:17.866Z,33.70
2023-03-01T08:28:21.152Z,34.00
2023-03-01T08:33:24.251Z,33.90
2023-03-01T08:38:28.811Z,33.70
2023-03-01T08:43:32.676Z,33.70
2023-03-01T08:48:35.769Z,33.70
2023-03-01T08:53:40.614Z,33.40
2023-03-01T08:58:46.524Z,33.30
2023-03-01T09:03:49.827Z,33.30
2023-03-01T09:08:55.796Z,33.30
2023-03-01T09:13:58.952Z,33.00
2023-03-01T09:19:02.046Z,33.00
2023-03-01T09:24:07.218Z,32.80
2023-03-01T09:29:11.381Z,32.70
2023-03-01T09:34:17.090Z,32.50
2023-03-01T09:39:22.367Z,32.50
2023-03-01T09:44:37.571Z,31.90
2023-03-01T09:49:49.543Z,31.00
2023-03-01T09:54:59.504Z,31.40
2023-03-01T10:00:18.151Z,31.30
2023-03-01T10:05:33.579Z,31.00
2023-03-01T10:10:40.856Z,30.60
2023-03-01T10:15:49.796Z,31.40
2023-03-01T10:20:55.975Z,30.40
2023-03-01T10:26:19.563Z,30.30
2023-03-01T10:31:29.512Z,29.10
2023-03-01T10:36:36.125Z,30.10
2023-03-01T10:41:54.861Z,30.10
2023-03-01T10:47:02.683Z,29.90
2023-03-01T10:52:20.834Z,29.80
2023-03-01T10:57:42.674Z,29.60
2023-03-01T11:02:48.370Z,29.30
2023-03-01T11:07:53.398Z,30.10
2023-03-01T11:13:09.525Z,29.80
2023-03-01T11:18:30.958Z,28.70
2023-03-01T11:23:41.986Z,28.80
2023-03-01T11:28:53.657Z,29.70
2023-03-01T11:34:01.950Z,29.30
2023-03-01T11:39:14.291Z,29.50
2023-03-01T11:44:22.163Z,29.50
2023-03-01T11:50:02.851Z,28.40
2023-03-01T11:55:25.599Z,28.30
2023-03-01T12:00:46.597Z,28.40
2023-03-01T12:06:25.074Z,28.00
2023-03-01T12:11:42.173Z,28.50
2023-03-01T12:17:28.047Z,28.50
2023-03-01T12:22:41.594Z,28.00
2023-03-01T12:28:00.478Z,28.00
2023-03-01T12:33:22.769Z,28.00
2023-03-01T12:38:38.646Z,28.00
2023-03-01T12:43:57.676Z,27.90
2023-03-01T12:49:10.110Z,28.10
2023-03-01T12:54:18.339Z,28.20
2023-03-01T12:59:27.261Z,28.30
2023-03-01T13:04:44.222Z,28.40
2023-03-01T13:09:56.915Z,28.10
2023-03-01T13:15:00.063Z,27.80
2023-03-01T13:20:05.113Z,28.70
2023-03-01T13:25:23.118Z,28.90
2023-03-01T13:30:44.762Z,27.80
2023-03-01T13:35:48.147Z,27.30
2023-03-01T13:41:02.148Z,29.00
2023-03-01T13:46:12.864Z,28.20
2023-03-01T13:51:16.246Z,28.00
2023-03-01T13:56:26.074Z,28.60
2023-03-01T14:01:31.938Z,28.00
2023-03-01T14:06:37.316Z,28.30
2023-03-01T14:12:11.645Z,28.40
2023-03-01T14:17:56.556Z,27.80
2023-03-01T14:23:02.271Z,27.80
2023-03-01T14:28:18.227Z,28.20
2023-03-01T14:33:24.563Z,27.80
2023-03-01T14:38:36.778Z,28.10
2023-03-01T14:43:45.304Z,27.80
2023-03-01T14:48:52.095Z,28.20
2023-03-01T14:53:55.687Z,28.00
2023-03-01T14:59:01.628Z,28.30
2023-03-01T15:04:05.114Z,28.10
2023-03-01T15:09:09.834Z,28.50
2023-03-01T15:14:40.370Z,28.50
2023-03-01T15:19:43.575Z,27.70
2023-03-01T15:24:50.673Z,28.30
2023-03-01T15:29:57.851Z,28.20
2023-03-01T15:35:02.138Z,27.90
2023-03-01T15:40:19.919Z,28.20
2023-03-01T15:45:28.283Z,28.20
2023-03-01T15:50:33.996Z,27.90
2023-03-01T15:55:37.111Z,28.20
2023-03-01T16:00:54.449Z,28.10
2023-03-01T16:06:02.360Z,27.80
2023-03-01T16:11:06.808Z,28.10
2023-03-01T16:16:15.905Z,28.00
2023-03-01T16:21:23.933Z,27.80
2023-03-01T16:26:28.833Z,27.90
2023-03-01T16:31:34.526Z,28.00
2023-03-01T16:36:37.961Z,27.90
2023-03-01T16:41:41.077Z,28.00
2023-03-01T16:46:45.756Z,28.10
2023-03-01T16:51:48.888Z,28.00
2023-03-01T16:56:52.051Z,28.20
2023-03-01T17:01:56.557Z,28.20
2023-03-01T17:06:59.737Z,28.50
2023-03-01T17:12:02.819Z,28.50
2023-03-01T17:17:07.283Z,28.50
2023-03-01T17:22:10.394Z,28.60
2023-03-01T17:27:14.131Z,28.50
2023-03-01T17:32:18.709Z,28.50
2023-03-01T17:37:21.986Z,28.40
2023-03-01T17:42:25.050Z,28.30
2023-03-01T17:47:29.545Z,28.30
2023-03-01T17:52:32.634Z,28.30
2023-03-01T17:57:36.052Z,29.00
2023-03-01T18:02:40.685Z,29.00
2023-03-01T18:07:43.823Z,29.00
2023-03-01T18:12:47.000Z,29.00
2023-03-01T18:17:51.471Z,28.90
2023-03-01T18:22:54.553Z,28.90
2023-03-01T18:27:57.734Z,28.90
2023-03-01T18:33:02.303Z,28.80
2023-03-01T18:38:05.858Z,28.70
2023-03-01T18:43:08.955Z,28.90
2023-03-01T18:48:14.318Z,29.00
2023-03-01T18:53:17.476Z,29.10
2023-03-01T18:58:20.554Z,29.10
2023-03-01T19:03:25.013Z,29.30
2023-03-01T19:08:28.377Z,29.30
2023-03-01T19:13:32.297Z,29.30
2023-03-01T19:18:37.398Z,29.30
2023-03-01T19:23:40.629Z,29.40
2023-03-01T19:28:44.597Z,29.40
2023-03-01T19:33:50.081Z,29.40
2023-03-01T19:38:53.241Z,29.50
2023-03-01T19:43:57.405Z,29.50
2023-03-01T19:49:03.481Z,29.60
2023-03-01T19:54:07.104Z,29.70
2023-03-01T19:59:10.180Z,29.60
2023-03-01T20:04:14.847Z,29.70
2023-03-01T20:09:22.090Z,29.80
2023-03-01T20:14:25.646Z,29.70
2023-03-01T20:19:30.280Z,29.60
2023-03-01T20:24:33.467Z,29.70
2023-03-01T20:29:37.001Z,29.60
2023-03-01T20:34:41.485Z,29.60
2023-03-01T20:39:44.620Z,29.80
2023-03-01T20:44:47.800Z,29.80
2023-03-01T20:49:53.416Z,29.90
2023-03-01T20:54:56.474Z,30.00
2023-03-01T20:59:59.559Z,29.90
2023-03-01T21:05:04.035Z,29.80
2023-03-01T21:10:07.753Z,30.00
2023-03-01T21:15:23.487Z,30.00
2023-03-01T21:20:32.726Z,30.20
2023-03-01T21:25:35.829Z,30.20
2023-03-01T21:30:39.003Z,30.20
2023-03-01T21:35:43.523Z,30.40
2023-03-01T21:40:46.603Z,30.40
2023-03-01T21:45:49.725Z,30.40
2023-03-01T21:50:57.427Z,30.40
2023-03-01T21:56:00.913Z,30.90
2023-03-01T22:01:09.398Z,30.50
2023-03-01T22:06:19.609Z,30.60
2023-03-01T22:11:23.632Z,30.60
2023-03-01T22:16:28.830Z,30.50
2023-03-01T22:21:33.516Z,30.50
2023-03-01T22:26:38.483Z,30.60
2023-03-01T22:31:42.044Z,30.80
2023-03-01T22:36:49.611Z,30.60
2023-03-01T22:41:55.161Z,31.00
2023-03-01T22:46:58.287Z,30.70
2023-03-01T22:52:02.741Z,30.60
2023-03-01T22:57:05.848Z,30.80
2023-03-01T23:02:09.020Z,30.80
2023-03-01T23:07:13.532Z,30.90
2023-03-01T23:12:16.586Z,30.90
2023-03-01T23:17:19.691Z,30.70
2023-03-01T23:22:24.139Z,30.70
2023-03-01T23:27:30.699Z,31.00
2023-03-01T23:32:38.419Z,31.00
2023-03-01T23:37:42.871Z,31.00
2023-03-01T23:42:46.137Z,31.10
2023-03-01T23:47:49.224Z,31.10
2023-03-01T23:52:53.654Z,31.10
2023-03-01T23:57:56.734Z,31.60
